sensor_id;sensor_type;location;lat;lon;timestamp;P1;durP1;ratioP1;P2;durP2;ratioP2
31384;SDS011;18016;49.788;8.742;2022-11-12T00:01:06;193.83;;;11.67;;
31384;SDS011;18016;49.788;8.742;2022-11-12T00:03:31;233.80;;;13.57;;
31384;SDS011;18016;49.788;8.742;2022-11-12T00:05:57;133.07;;;10.77;;
31384;SDS011;18016;49.788;8.742;2022-11-12T00:08:22;213.97;;;12.93;;
31384;SDS011;18016;49.788;8.742;2022-11-12T00:10:47;243.68;;;13.40;;
31384;SDS011;18016;49.788;8.742;2022-11-12T00:13:12;149.70;;;10.77;;
31384;SDS011;18016;49.788;8.742;2022-11-12T00:15:38;168.80;;;10.68;;
31384;SDS011;18016;49.788;8.742;2022-11-12T00:18:03;183.95;;;10.23;;
31384;SDS011;18016;49.788;8.742;2022-11-12T00:20:28;207.68;;;11.95;;
31384;SDS011;18016;49.788;8.742;2022-11-12T00:22:53;214.60;;;11.50;;
31384;SDS011;18016;49.788;8.742;2022-11-12T00:25:18;107.60;;;8.40;;
31384;SDS011;18016;49.788;8.742;2022-11-12T00:27:44;211.23;;;12.75;;
31384;SDS011;18016;49.788;8.742;2022-11-12T00:30:09;185.60;;;10.40;;
31384;SDS011;18016;49.788;8.742;2022-11-12T00:32:35;167.50;;;9.93;;
31384;SDS011;18016;49.788;8.742;2022-11-12T00:35:00;159.85;;;9.13;;
31384;SDS011;18016;49.788;8.742;2022-11-12T00:37:25;148.83;;;10.13;;
31384;SDS011;18016;49.788;8.742;2022-11-12T00:39:50;191.95;;;10.30;;
31384;SDS011;18016;49.788;8.742;2022-11-12T00:42:16;165.10;;;9.10;;
31384;SDS011;18016;49.788;8.742;2022-11-12T00:44:41;201.77;;;9.67;;
31384;SDS011;18016;49.788;8.742;2022-11-12T00:47:06;143.13;;;8.60;;
31384;SDS011;18016;49.788;8.742;2022-11-12T00:49:31;178.40;;;9.13;;
31384;SDS011;18016;49.788;8.742;2022-11-12T00:51:56;136.83;;;8.57;;
31384;SDS011;18016;49.788;8.742;2022-11-12T00:54:21;53.07;;;5.60;;
31384;SDS011;18016;49.788;8.742;2022-11-12T00:56:47;72.77;;;6.80;;
31384;SDS011;18016;49.788;8.742;2022-11-12T00:59:12;227.33;;;10.43;;
31384;SDS011;18016;49.788;8.742;2022-11-12T01:01:37;125.15;;;7.13;;
31384;SDS011;18016;49.788;8.742;2022-11-12T01:04:03;247.85;;;9.77;;
31384;SDS011;18016;49.788;8.742;2022-11-12T01:06:28;99.57;;;6.97;;
31384;SDS011;18016;49.788;8.742;2022-11-12T01:08:54;113.15;;;7.75;;
31384;SDS011;18016;49.788;8.742;2022-11-12T01:11:20;55.20;;;5.97;;
31384;SDS011;18016;49.788;8.742;2022-11-12T01:13:46;166.35;;;7.90;;
31384;SDS011;18016;49.788;8.742;2022-11-12T01:16:12;106.72;;;6.38;;
31384;SDS011;18016;49.788;8.742;2022-11-12T01:18:38;100.82;;;6.68;;
31384;SDS011;18016;49.788;8.742;2022-11-12T01:21:04;48.05;;;5.00;;
31384;SDS011;18016;49.788;8.742;2022-11-12T01:23:33;60.47;;;5.00;;
31384;SDS011;18016;49.788;8.742;2022-11-12T01:26:02;71.18;;;5.72;;
31384;SDS011;18016;49.788;8.742;2022-11-12T01:28:27;29.48;;;5.25;;
31384;SDS011;18016;49.788;8.742;2022-11-12T01:30:53;46.57;;;5.43;;
31384;SDS011;18016;49.788;8.742;2022-11-12T01:33:18;22.37;;;5.10;;
31384;SDS011;18016;49.788;8.742;2022-11-12T01:35:43;67.30;;;6.43;;
31384;SDS011;18016;49.788;8.742;2022-11-12T01:38:08;42.47;;;5.70;;
31384;SDS011;18016;49.788;8.742;2022-11-12T01:40:33;74.07;;;5.73;;
31384;SDS011;18016;49.788;8.742;2022-11-12T01:42:58;63.13;;;6.27;;
31384;SDS011;18016;49.788;8.742;2022-11-12T01:45:24;68.50;;;6.33;;
31384;SDS011;18016;49.788;8.742;2022-11-12T01:47:49;144.70;;;7.97;;
31384;SDS011;18016;49.788;8.742;2022-11-12T01:50:16;76.90;;;6.63;;
31384;SDS011;18016;49.788;8.742;2022-11-12T01:52:50;56.95;;;6.20;;
31384;SDS011;18016;49.788;8.742;2022-11-12T01:55:18;50.15;;;6.50;;
31384;SDS011;18016;49.788;8.742;2022-11-12T01:57:54;73.65;;;6.40;;
31384;SDS011;18016;49.788;8.742;2022-11-12T02:00:21;36.45;;;5.30;;
31384;SDS011;18016;49.788;8.742;2022-11-12T02:02:48;35.70;;;5.78;;
31384;SDS011;18016;49.788;8.742;2022-11-12T02:05:16;23.80;;;4.97;;
31384;SDS011;18016;49.788;8.742;2022-11-12T02:07:41;49.90;;;5.80;;
31384;SDS011;18016;49.788;8.742;2022-11-12T02:10:08;42.70;;;5.55;;
31384;SDS011;18016;49.788;8.742;2022-11-12T02:12:33;60.83;;;6.05;;
31384;SDS011;18016;49.788;8.742;2022-11-12T02:15:17;53.47;;;5.43;;
31384;SDS011;18016;49.788;8.742;2022-11-12T02:17:43;58.30;;;5.87;;
31384;SDS011;18016;49.788;8.742;2022-11-12T02:20:09;78.50;;;6.10;;
31384;SDS011;18016;49.788;8.742;2022-11-12T02:22:34;60.80;;;7.22;;
31384;SDS011;18016;49.788;8.742;2022-11-12T02:25:00;29.13;;;6.60;;
31384;SDS011;18016;49.788;8.742;2022-11-12T02:27:25;92.27;;;6.80;;
31384;SDS011;18016;49.788;8.742;2022-11-12T02:29:51;21.50;;;6.45;;
31384;SDS011;18016;49.788;8.742;2022-11-12T02:32:16;32.30;;;6.28;;
31384;SDS011;18016;49.788;8.742;2022-11-12T02:34:41;53.50;;;6.68;;
31384;SDS011;18016;49.788;8.742;2022-11-12T02:37:06;43.23;;;6.40;;
31384;SDS011;18016;49.788;8.742;2022-11-12T02:39:32;47.97;;;6.63;;
31384;SDS011;18016;49.788;8.742;2022-11-12T02:41:57;65.13;;;7.90;;
31384;SDS011;18016;49.788;8.742;2022-11-12T02:44:23;16.92;;;6.50;;
31384;SDS011;18016;49.788;8.742;2022-11-12T02:46:48;22.07;;;7.53;;
31384;SDS011;18016;49.788;8.742;2022-11-12T02:49:13;95.10;;;9.10;;
31384;SDS011;18016;49.788;8.742;2022-11-12T02:51:38;81.77;;;9.10;;
31384;SDS011;18016;49.788;8.742;2022-11-12T02:54:03;193.67;;;10.50;;
31384;SDS011;18016;49.788;8.742;2022-11-12T02:56:28;85.27;;;8.20;;
31384;SDS011;18016;49.788;8.742;2022-11-12T02:58:54;381.87;;;13.60;;
31384;SDS011;18016;49.788;8.742;2022-11-12T03:01:19;325.07;;;12.60;;
31384;SDS011;18016;49.788;8.742;2022-11-12T03:03:44;282.60;;;11.70;;
31384;SDS011;18016;49.788;8.742;2022-11-12T03:06:09;127.47;;;7.37;;
31384;SDS011;18016;49.788;8.742;2022-11-12T03:08:34;169.23;;;8.30;;
31384;SDS011;18016;49.788;8.742;2022-11-12T03:11:04;86.30;;;6.90;;
31384;SDS011;18016;49.788;8.742;2022-11-12T03:13:30;97.65;;;7.03;;
31384;SDS011;18016;49.788;8.742;2022-11-12T03:16:01;271.90;;;10.03;;
31384;SDS011;18016;49.788;8.742;2022-11-12T03:18:26;98.05;;;6.22;;
31384;SDS011;18016;49.788;8.742;2022-11-12T03:20:51;169.47;;;8.13;;
31384;SDS011;18016;49.788;8.742;2022-11-12T03:23:16;170.52;;;7.15;;
31384;SDS011;18016;49.788;8.742;2022-11-12T03:25:42;123.83;;;6.80;;
31384;SDS011;18016;49.788;8.742;2022-11-12T03:28:08;139.63;;;6.23;;
31384;SDS011;18016;49.788;8.742;2022-11-12T03:30:35;131.90;;;6.13;;
31384;SDS011;18016;49.788;8.742;2022-11-12T03:33:00;113.85;;;6.20;;
31384;SDS011;18016;49.788;8.742;2022-11-12T03:35:25;80.87;;;5.23;;
31384;SDS011;18016;49.788;8.742;2022-11-12T03:37:51;70.32;;;4.80;;
31384;SDS011;18016;49.788;8.742;2022-11-12T03:40:17;14.52;;;3.60;;
31384;SDS011;18016;49.788;8.742;2022-11-12T03:42:45;19.13;;;3.83;;
31384;SDS011;18016;49.788;8.742;2022-11-12T03:45:11;82.20;;;4.93;;
31384;SDS011;18016;49.788;8.742;2022-11-12T03:47:39;82.80;;;4.93;;
31384;SDS011;18016;49.788;8.742;2022-11-12T03:50:04;151.35;;;6.60;;
31384;SDS011;18016;49.788;8.742;2022-11-12T03:52:30;110.28;;;5.45;;
31384;SDS011;18016;49.788;8.742;2022-11-12T03:54:55;45.37;;;4.33;;
31384;SDS011;18016;49.788;8.742;2022-11-12T03:57:20;102.80;;;6.40;;
31384;SDS011;18016;49.788;8.742;2022-11-12T03:59:46;113.57;;;5.93;;
31384;SDS011;18016;49.788;8.742;2022-11-12T04:02:11;51.60;;;4.70;;
31384;SDS011;18016;49.788;8.742;2022-11-12T04:04:38;60.50;;;5.10;;
31384;SDS011;18016;49.788;8.742;2022-11-12T04:07:26;70.18;;;4.97;;
31384;SDS011;18016;49.788;8.742;2022-11-12T04:10:10;32.17;;;3.78;;
31384;SDS011;18016;49.788;8.742;2022-11-12T04:12:35;78.80;;;4.72;;
31384;SDS011;18016;49.788;8.742;2022-11-12T04:15:19;61.42;;;4.10;;
31384;SDS011;18016;49.788;8.742;2022-11-12T04:17:44;177.03;;;7.60;;
31384;SDS011;18016;49.788;8.742;2022-11-12T04:20:28;148.77;;;5.55;;
31384;SDS011;18016;49.788;8.742;2022-11-12T04:23:12;97.07;;;4.90;;
31384;SDS011;18016;49.788;8.742;2022-11-12T04:25:38;132.97;;;6.10;;
31384;SDS011;18016;49.788;8.742;2022-11-12T04:28:21;23.30;;;3.22;;
31384;SDS011;18016;49.788;8.742;2022-11-12T04:30:47;5.50;;;3.10;;
31384;SDS011;18016;49.788;8.742;2022-11-12T04:33:12;16.50;;;3.37;;
31384;SDS011;18016;49.788;8.742;2022-11-12T04:35:37;54.17;;;4.27;;
31384;SDS011;18016;49.788;8.742;2022-11-12T04:38:02;25.10;;;3.43;;
31384;SDS011;18016;49.788;8.742;2022-11-12T04:40:27;148.38;;;5.93;;
31384;SDS011;18016;49.788;8.742;2022-11-12T04:43:13;237.27;;;8.35;;
31384;SDS011;18016;49.788;8.742;2022-11-12T04:48:23;39.78;;;3.67;;
31384;SDS011;18016;49.788;8.742;2022-11-12T04:50:49;47.97;;;4.00;;
31384;SDS011;18016;49.788;8.742;2022-11-12T04:53:17;64.07;;;4.07;;
31384;SDS011;18016;49.788;8.742;2022-11-12T04:55:42;62.40;;;3.90;;
31384;SDS011;18016;49.788;8.742;2022-11-12T04:58:07;79.22;;;4.20;;
31384;SDS011;18016;49.788;8.742;2022-11-12T05:00:33;15.50;;;2.83;;
31384;SDS011;18016;49.788;8.742;2022-11-12T05:02:58;53.10;;;3.53;;
31384;SDS011;18016;49.788;8.742;2022-11-12T05:05:23;49.40;;;3.23;;
31384;SDS011;18016;49.788;8.742;2022-11-12T05:07:48;51.40;;;3.53;;
31384;SDS011;18016;49.788;8.742;2022-11-12T05:10:14;44.73;;;3.60;;
31384;SDS011;18016;49.788;8.742;2022-11-12T05:12:39;29.67;;;3.03;;
31384;SDS011;18016;49.788;8.742;2022-11-12T05:15:04;233.47;;;7.30;;
31384;SDS011;18016;49.788;8.742;2022-11-12T05:17:29;197.98;;;6.65;;
31384;SDS011;18016;49.788;8.742;2022-11-12T05:19:55;115.53;;;4.70;;
31384;SDS011;18016;49.788;8.742;2022-11-12T05:22:20;130.43;;;4.90;;
31384;SDS011;18016;49.788;8.742;2022-11-12T05:24:45;43.97;;;3.15;;
31384;SDS011;18016;49.788;8.742;2022-11-12T05:27:14;151.70;;;6.00;;
31384;SDS011;18016;49.788;8.742;2022-11-12T05:29:40;326.40;;;9.68;;
31384;SDS011;18016;49.788;8.742;2022-11-12T05:32:06;162.48;;;6.38;;
31384;SDS011;18016;49.788;8.742;2022-11-12T05:34:32;151.38;;;6.25;;
31384;SDS011;18016;49.788;8.742;2022-11-12T05:36:57;221.18;;;7.80;;
31384;SDS011;18016;49.788;8.742;2022-11-12T05:39:22;374.30;;;11.65;;
31384;SDS011;18016;49.788;8.742;2022-11-12T05:41:48;265.83;;;8.97;;
31384;SDS011;18016;49.788;8.742;2022-11-12T05:44:13;356.65;;;11.95;;
31384;SDS011;18016;49.788;8.742;2022-11-12T05:46:38;277.45;;;8.85;;
31384;SDS011;18016;49.788;8.742;2022-11-12T05:49:03;216.33;;;8.20;;
31384;SDS011;18016;49.788;8.742;2022-11-12T05:51:29;312.33;;;10.00;;
31384;SDS011;18016;49.788;8.742;2022-11-12T05:53:54;183.13;;;7.82;;
31384;SDS011;18016;49.788;8.742;2022-11-12T05:56:19;164.45;;;6.90;;
31384;SDS011;18016;49.788;8.742;2022-11-12T05:58:44;130.50;;;5.53;;
31384;SDS011;18016;49.788;8.742;2022-11-12T06:01:09;270.27;;;8.63;;
31384;SDS011;18016;49.788;8.742;2022-11-12T06:03:35;225.77;;;8.20;;
31384;SDS011;18016;49.788;8.742;2022-11-12T06:06:00;243.63;;;8.30;;
31384;SDS011;18016;49.788;8.742;2022-11-12T06:08:25;348.70;;;12.80;;
31384;SDS011;18016;49.788;8.742;2022-11-12T06:10:51;203.50;;;9.60;;
31384;SDS011;18016;49.788;8.742;2022-11-12T06:13:16;75.55;;;4.68;;
31384;SDS011;18016;49.788;8.742;2022-11-12T06:15:42;228.32;;;8.38;;
31384;SDS011;18016;49.788;8.742;2022-11-12T06:18:07;148.48;;;5.97;;
31384;SDS011;18016;49.788;8.742;2022-11-12T06:20:32;323.70;;;10.80;;
31384;SDS011;18016;49.788;8.742;2022-11-12T06:22:58;276.77;;;9.25;;
31384;SDS011;18016;49.788;8.742;2022-11-12T06:25:23;221.43;;;8.10;;
31384;SDS011;18016;49.788;8.742;2022-11-12T06:27:48;86.47;;;4.73;;
31384;SDS011;18016;49.788;8.742;2022-11-12T06:30:13;109.10;;;5.57;;
31384;SDS011;18016;49.788;8.742;2022-11-12T06:32:38;67.53;;;4.10;;
31384;SDS011;18016;49.788;8.742;2022-11-12T06:35:04;101.97;;;5.22;;
31384;SDS011;18016;49.788;8.742;2022-11-12T06:37:30;71.05;;;4.43;;
31384;SDS011;18016;49.788;8.742;2022-11-12T06:39:55;140.52;;;6.50;;
31384;SDS011;18016;49.788;8.742;2022-11-12T06:42:20;222.47;;;7.50;;
31384;SDS011;18016;49.788;8.742;2022-11-12T06:44:45;331.43;;;10.53;;
31384;SDS011;18016;49.788;8.742;2022-11-12T06:47:10;216.10;;;7.73;;
31384;SDS011;18016;49.788;8.742;2022-11-12T06:49:35;134.30;;;5.80;;
31384;SDS011;18016;49.788;8.742;2022-11-12T06:52:01;132.13;;;5.83;;
31384;SDS011;18016;49.788;8.742;2022-11-12T06:54:26;107.38;;;5.50;;
31384;SDS011;18016;49.788;8.742;2022-11-12T06:56:51;124.80;;;6.30;;
31384;SDS011;18016;49.788;8.742;2022-11-12T06:59:16;62.83;;;4.50;;
31384;SDS011;18016;49.788;8.742;2022-11-12T07:01:42;57.40;;;4.37;;
31384;SDS011;18016;49.788;8.742;2022-11-12T07:04:07;14.67;;;3.17;;
31384;SDS011;18016;49.788;8.742;2022-11-12T07:06:32;66.93;;;4.30;;
31384;SDS011;18016;49.788;8.742;2022-11-12T07:08:57;23.65;;;2.60;;
31384;SDS011;18016;49.788;8.742;2022-11-12T07:11:23;5.67;;;2.57;;
31384;SDS011;18016;49.788;8.742;2022-11-12T07:13:48;22.75;;;2.90;;
31384;SDS011;18016;49.788;8.742;2022-11-12T07:16:13;50.70;;;3.40;;
31384;SDS011;18016;49.788;8.742;2022-11-12T07:18:42;24.10;;;3.38;;
31384;SDS011;18016;49.788;8.742;2022-11-12T07:21:12;30.98;;;3.10;;
31384;SDS011;18016;49.788;8.742;2022-11-12T07:23:38;8.43;;;2.30;;
31384;SDS011;18016;49.788;8.742;2022-11-12T07:26:04;19.60;;;2.70;;
31384;SDS011;18016;49.788;8.742;2022-11-12T07:28:30;50.25;;;3.38;;
31384;SDS011;18016;49.788;8.742;2022-11-12T07:30:56;27.85;;;2.58;;
31384;SDS011;18016;49.788;8.742;2022-11-12T07:33:21;6.70;;;2.45;;
31384;SDS011;18016;49.788;8.742;2022-11-12T07:35:47;7.95;;;2.70;;
31384;SDS011;18016;49.788;8.742;2022-11-12T07:38:12;2.63;;;2.20;;
31384;SDS011;18016;49.788;8.742;2022-11-12T07:40:37;4.83;;;2.50;;
31384;SDS011;18016;49.788;8.742;2022-11-12T07:43:02;5.53;;;2.10;;
31384;SDS011;18016;49.788;8.742;2022-11-12T07:45:27;3.60;;;2.50;;
31384;SDS011;18016;49.788;8.742;2022-11-12T07:47:53;10.53;;;3.53;;
31384;SDS011;18016;49.788;8.742;2022-11-12T07:50:18;5.57;;;2.67;;
31384;SDS011;18016;49.788;8.742;2022-11-12T07:52:43;3.43;;;2.60;;
31384;SDS011;18016;49.788;8.742;2022-11-12T07:55:08;3.50;;;2.27;;
31384;SDS011;18016;49.788;8.742;2022-11-12T07:57:33;4.40;;;2.43;;
31384;SDS011;18016;49.788;8.742;2022-11-12T07:59:58;7.87;;;2.50;;
31384;SDS011;18016;49.788;8.742;2022-11-12T08:02:24;6.07;;;2.40;;
31384;SDS011;18016;49.788;8.742;2022-11-12T08:04:49;7.82;;;2.47;;
31384;SDS011;18016;49.788;8.742;2022-11-12T08:07:14;3.07;;;2.23;;
31384;SDS011;18016;49.788;8.742;2022-11-12T08:09:39;3.40;;;2.40;;
31384;SDS011;18016;49.788;8.742;2022-11-12T08:12:04;7.37;;;2.47;;
31384;SDS011;18016;49.788;8.742;2022-11-12T08:14:30;5.00;;;3.03;;
31384;SDS011;18016;49.788;8.742;2022-11-12T08:16:55;6.93;;;3.00;;
31384;SDS011;18016;49.788;8.742;2022-11-12T08:19:20;15.17;;;3.10;;
31384;SDS011;18016;49.788;8.742;2022-11-12T08:21:45;8.87;;;3.20;;
31384;SDS011;18016;49.788;8.742;2022-11-12T08:24:11;18.85;;;3.78;;
31384;SDS011;18016;49.788;8.742;2022-11-12T08:26:36;17.63;;;3.70;;
31384;SDS011;18016;49.788;8.742;2022-11-12T08:29:02;16.65;;;3.40;;
31384;SDS011;18016;49.788;8.742;2022-11-12T08:31:27;7.13;;;3.85;;
31384;SDS011;18016;49.788;8.742;2022-11-12T08:33:52;10.53;;;4.17;;
31384;SDS011;18016;49.788;8.742;2022-11-12T08:36:17;8.02;;;4.00;;
31384;SDS011;18016;49.788;8.742;2022-11-12T08:38:43;4.40;;;4.00;;
31384;SDS011;18016;49.788;8.742;2022-11-12T08:41:09;7.40;;;4.18;;
31384;SDS011;18016;49.788;8.742;2022-11-12T08:43:34;10.20;;;4.57;;
31384;SDS011;18016;49.788;8.742;2022-11-12T08:46:00;6.47;;;4.43;;
31384;SDS011;18016;49.788;8.742;2022-11-12T08:48:26;13.98;;;4.15;;
31384;SDS011;18016;49.788;8.742;2022-11-12T08:50:51;14.98;;;4.90;;
31384;SDS011;18016;49.788;8.742;2022-11-12T08:53:17;9.80;;;4.40;;
31384;SDS011;18016;49.788;8.742;2022-11-12T08:55:42;4.93;;;4.23;;
31384;SDS011;18016;49.788;8.742;2022-11-12T08:58:07;7.88;;;3.90;;
31384;SDS011;18016;49.788;8.742;2022-11-12T09:00:35;4.68;;;3.63;;
31384;SDS011;18016;49.788;8.742;2022-11-12T09:03:01;6.60;;;4.57;;
31384;SDS011;18016;49.788;8.742;2022-11-12T09:05:26;6.10;;;3.00;;
31384;SDS011;18016;49.788;8.742;2022-11-12T09:08:02;3.45;;;2.63;;
31384;SDS011;18016;49.788;8.742;2022-11-12T09:10:28;20.65;;;4.15;;
31384;SDS011;18016;49.788;8.742;2022-11-12T09:12:53;8.17;;;3.60;;
31384;SDS011;18016;49.788;8.742;2022-11-12T09:15:19;4.68;;;3.53;;
31384;SDS011;18016;49.788;8.742;2022-11-12T09:17:44;5.13;;;3.78;;
31384;SDS011;18016;49.788;8.742;2022-11-12T09:20:09;4.35;;;3.80;;
31384;SDS011;18016;49.788;8.742;2022-11-12T09:22:34;6.90;;;4.07;;
31384;SDS011;18016;49.788;8.742;2022-11-12T09:25:00;6.33;;;4.13;;
31384;SDS011;18016;49.788;8.742;2022-11-12T09:27:25;7.20;;;3.73;;
31384;SDS011;18016;49.788;8.742;2022-11-12T09:29:51;5.13;;;3.75;;
31384;SDS011;18016;49.788;8.742;2022-11-12T09:32:16;5.37;;;3.57;;
31384;SDS011;18016;49.788;8.742;2022-11-12T09:34:41;4.00;;;3.60;;
31384;SDS011;18016;49.788;8.742;2022-11-12T09:37:06;9.67;;;3.73;;
31384;SDS011;18016;49.788;8.742;2022-11-12T09:39:31;6.93;;;4.10;;
31384;SDS011;18016;49.788;8.742;2022-11-12T09:41:56;4.17;;;3.40;;
31384;SDS011;18016;49.788;8.742;2022-11-12T09:44:22;5.40;;;3.78;;
31384;SDS011;18016;49.788;8.742;2022-11-12T09:46:53;4.05;;;3.67;;
31384;SDS011;18016;49.788;8.742;2022-11-12T09:49:27;10.75;;;4.60;;
31384;SDS011;18016;49.788;8.742;2022-11-12T09:51:54;4.82;;;4.25;;
31384;SDS011;18016;49.788;8.742;2022-11-12T09:54:24;5.38;;;4.88;;
31384;SDS011;18016;49.788;8.742;2022-11-12T09:56:50;7.22;;;4.90;;
31384;SDS011;18016;49.788;8.742;2022-11-12T09:59:16;6.57;;;4.95;;
31384;SDS011;18016;49.788;8.742;2022-11-12T10:01:53;7.45;;;5.18;;
31384;SDS011;18016;49.788;8.742;2022-11-12T10:09:47;6.28;;;5.30;;
31384;SDS011;18016;49.788;8.742;2022-11-12T10:12:20;6.47;;;5.65;;
31384;SDS011;18016;49.788;8.742;2022-11-12T10:17:54;6.15;;;5.55;;
31384;SDS011;18016;49.788;8.742;2022-11-12T10:20:29;6.22;;;5.63;;
31384;SDS011;18016;49.788;8.742;2022-11-12T10:25:42;7.35;;;6.30;;
31384;SDS011;18016;49.788;8.742;2022-11-12T10:30:45;7.47;;;5.97;;
31384;SDS011;18016;49.788;8.742;2022-11-12T10:33:12;6.95;;;6.20;;
31384;SDS011;18016;49.788;8.742;2022-11-12T10:35:37;7.40;;;5.80;;
31384;SDS011;18016;49.788;8.742;2022-11-12T10:38:03;16.73;;;10.60;;
31384;SDS011;18016;49.788;8.742;2022-11-12T10:42:56;8.87;;;7.13;;
31384;SDS011;18016;49.788;8.742;2022-11-12T10:45:22;9.68;;;7.07;;
31384;SDS011;18016;49.788;8.742;2022-11-12T10:47:47;9.25;;;7.00;;
31384;SDS011;18016;49.788;8.742;2022-11-12T10:52:51;6.45;;;5.75;;
31384;SDS011;18016;49.788;8.742;2022-11-12T10:55:18;6.45;;;5.72;;
31384;SDS011;18016;49.788;8.742;2022-11-12T10:57:43;12.82;;;9.35;;
31384;SDS011;18016;49.788;8.742;2022-11-12T11:02:37;10.05;;;8.30;;
31384;SDS011;18016;49.788;8.742;2022-11-12T11:07:49;5.65;;;5.10;;
31384;SDS011;18016;49.788;8.742;2022-11-12T11:10:22;5.40;;;4.88;;
31384;SDS011;18016;49.788;8.742;2022-11-12T11:12:48;5.30;;;4.80;;
31384;SDS011;18016;49.788;8.742;2022-11-12T11:15:19;5.35;;;4.72;;
31384;SDS011;18016;49.788;8.742;2022-11-12T11:17:44;5.80;;;5.20;;
31384;SDS011;18016;49.788;8.742;2022-11-12T11:20:15;6.32;;;5.45;;
31384;SDS011;18016;49.788;8.742;2022-11-12T11:22:40;5.60;;;5.10;;
31384;SDS011;18016;49.788;8.742;2022-11-12T11:25:17;5.70;;;5.10;;
31384;SDS011;18016;49.788;8.742;2022-11-12T11:27:48;6.32;;;5.10;;
31384;SDS011;18016;49.788;8.742;2022-11-12T11:30:19;5.75;;;4.93;;
31384;SDS011;18016;49.788;8.742;2022-11-12T11:35:13;7.33;;;4.90;;
31384;SDS011;18016;49.788;8.742;2022-11-12T11:37:54;6.25;;;4.78;;
31384;SDS011;18016;49.788;8.742;2022-11-12T11:45:50;5.80;;;5.20;;
31384;SDS011;18016;49.788;8.742;2022-11-12T11:53:39;6.18;;;5.57;;
31384;SDS011;18016;49.788;8.742;2022-11-12T11:56:09;7.05;;;5.45;;
31384;SDS011;18016;49.788;8.742;2022-11-12T11:58:51;6.95;;;6.25;;
31384;SDS011;18016;49.788;8.742;2022-11-12T12:01:26;6.20;;;5.57;;
31384;SDS011;18016;49.788;8.742;2022-11-12T12:06:42;11.90;;;6.50;;
31384;SDS011;18016;49.788;8.742;2022-11-12T12:11:44;5.93;;;5.35;;
31384;SDS011;18016;49.788;8.742;2022-11-12T12:14:17;6.00;;;5.40;;
31384;SDS011;18016;49.788;8.742;2022-11-12T12:19:26;6.40;;;5.80;;
31384;SDS011;18016;49.788;8.742;2022-11-12T12:21:54;7.40;;;6.65;;
31384;SDS011;18016;49.788;8.742;2022-11-12T12:24:21;7.97;;;6.55;;
31384;SDS011;18016;49.788;8.742;2022-11-12T12:27:30;7.22;;;6.53;;
31384;SDS011;18016;49.788;8.742;2022-11-12T12:29:38;8.35;;;6.80;;
31384;SDS011;18016;49.788;8.742;2022-11-12T12:32:11;7.78;;;6.47;;
31384;SDS011;18016;49.788;8.742;2022-11-12T12:34:45;7.57;;;6.55;;
31384;SDS011;18016;49.788;8.742;2022-11-12T12:37:14;8.32;;;7.00;;
31384;SDS011;18016;49.788;8.742;2022-11-12T12:39:46;9.85;;;6.63;;
31384;SDS011;18016;49.788;8.742;2022-11-12T12:42:19;8.60;;;7.18;;
31384;SDS011;18016;49.788;8.742;2022-11-12T12:44:56;8.70;;;7.10;;
31384;SDS011;18016;49.788;8.742;2022-11-12T12:47:25;8.75;;;7.47;;
31384;SDS011;18016;49.788;8.742;2022-11-12T12:49:52;8.32;;;7.13;;
31384;SDS011;18016;49.788;8.742;2022-11-12T12:52:18;7.65;;;6.85;;
31384;SDS011;18016;49.788;8.742;2022-11-12T12:57:27;12.85;;;8.63;;
31384;SDS011;18016;49.788;8.742;2022-11-12T13:02:37;9.73;;;7.32;;
31384;SDS011;18016;49.788;8.742;2022-11-12T13:05:02;12.02;;;7.63;;
31384;SDS011;18016;49.788;8.742;2022-11-12T13:07:41;11.30;;;8.25;;
31384;SDS011;18016;49.788;8.742;2022-11-12T13:10:52;9.73;;;8.05;;
31384;SDS011;18016;49.788;8.742;2022-11-12T13:13:03;10.38;;;8.73;;
31384;SDS011;18016;49.788;8.742;2022-11-12T13:17:53;10.10;;;8.73;;
31384;SDS011;18016;49.788;8.742;2022-11-12T13:20:33;10.10;;;8.77;;
31384;SDS011;18016;49.788;8.742;2022-11-12T13:22:58;10.95;;;8.30;;
31384;SDS011;18016;49.788;8.742;2022-11-12T13:25:25;10.98;;;9.10;;
31384;SDS011;18016;49.788;8.742;2022-11-12T13:42:52;11.93;;;10.03;;
31384;SDS011;18016;49.788;8.742;2022-11-12T13:45:23;12.00;;;10.02;;
31384;SDS011;18016;49.788;8.742;2022-11-12T13:47:48;12.75;;;9.70;;
31384;SDS011;18016;49.788;8.742;2022-11-12T13:50:21;10.73;;;9.40;;
31384;SDS011;18016;49.788;8.742;2022-11-12T13:52:47;12.35;;;10.18;;
31384;SDS011;18016;49.788;8.742;2022-11-12T13:55:17;11.15;;;9.77;;
31384;SDS011;18016;49.788;8.742;2022-11-12T13:57:49;12.75;;;9.88;;
31384;SDS011;18016;49.788;8.742;2022-11-12T14:00:19;11.48;;;10.10;;
31384;SDS011;18016;49.788;8.742;2022-11-12T14:02:46;13.00;;;10.60;;
31384;SDS011;18016;49.788;8.742;2022-11-12T14:05:13;12.88;;;10.90;;
31384;SDS011;18016;49.788;8.742;2022-11-12T14:10:16;12.23;;;10.90;;
31384;SDS011;18016;49.788;8.742;2022-11-12T14:12:48;14.30;;;10.85;;
31384;SDS011;18016;49.788;8.742;2022-11-12T14:15:30;13.73;;;11.63;;
31384;SDS011;18016;49.788;8.742;2022-11-12T14:18:03;16.88;;;12.40;;
31384;SDS011;18016;49.788;8.742;2022-11-12T14:20:37;15.80;;;12.07;;
31384;SDS011;18016;49.788;8.742;2022-11-12T14:25:34;13.77;;;11.57;;
31384;SDS011;18016;49.788;8.742;2022-11-12T14:31:11;18.55;;;13.05;;
31384;SDS011;18016;49.788;8.742;2022-11-12T14:33:37;15.50;;;12.05;;
31384;SDS011;18016;49.788;8.742;2022-11-12T14:36:03;14.07;;;12.13;;
31384;SDS011;18016;49.788;8.742;2022-11-12T14:38:30;21.35;;;12.77;;
31384;SDS011;18016;49.788;8.742;2022-11-12T14:40:57;15.45;;;12.45;;
31384;SDS011;18016;49.788;8.742;2022-11-12T14:43:24;15.35;;;13.05;;
31384;SDS011;18016;49.788;8.742;2022-11-12T14:45:51;15.32;;;12.30;;
31384;SDS011;18016;49.788;8.742;2022-11-12T14:48:16;15.85;;;13.18;;
31384;SDS011;18016;49.788;8.742;2022-11-12T14:50:42;19.25;;;14.65;;
31384;SDS011;18016;49.788;8.742;2022-11-12T14:53:13;17.25;;;14.00;;
31384;SDS011;18016;49.788;8.742;2022-11-12T14:55:40;17.00;;;13.43;;
31384;SDS011;18016;49.788;8.742;2022-11-12T14:58:06;18.98;;;13.63;;
31384;SDS011;18016;49.788;8.742;2022-11-12T15:02:56;21.05;;;16.05;;
31384;SDS011;18016;49.788;8.742;2022-11-12T15:05:22;26.67;;;20.98;;
31384;SDS011;18016;49.788;8.742;2022-11-12T15:08:03;24.05;;;20.15;;
31384;SDS011;18016;49.788;8.742;2022-11-12T15:15:48;18.23;;;14.68;;
31384;SDS011;18016;49.788;8.742;2022-11-12T15:18:25;20.40;;;15.00;;
31384;SDS011;18016;49.788;8.742;2022-11-12T15:23:28;77.40;;;49.63;;
31384;SDS011;18016;49.788;8.742;2022-11-12T15:25:57;37.73;;;26.37;;
31384;SDS011;18016;49.788;8.742;2022-11-12T15:28:23;24.23;;;17.45;;
31384;SDS011;18016;49.788;8.742;2022-11-12T15:30:59;22.85;;;17.15;;
31384;SDS011;18016;49.788;8.742;2022-11-12T15:33:24;22.30;;;17.00;;
31384;SDS011;18016;49.788;8.742;2022-11-12T15:35:56;18.33;;;15.23;;
31384;SDS011;18016;49.788;8.742;2022-11-12T15:38:32;22.95;;;16.17;;
31384;SDS011;18016;49.788;8.742;2022-11-12T15:40:59;21.45;;;16.77;;
31384;SDS011;18016;49.788;8.742;2022-11-12T15:43:26;20.98;;;16.30;;
31384;SDS011;18016;49.788;8.742;2022-11-12T15:45:52;25.08;;;17.38;;
31384;SDS011;18016;49.788;8.742;2022-11-12T15:48:18;22.25;;;16.63;;
31384;SDS011;18016;49.788;8.742;2022-11-12T15:50:44;23.80;;;17.70;;
31384;SDS011;18016;49.788;8.742;2022-11-12T15:53:09;26.20;;;19.13;;
31384;SDS011;18016;49.788;8.742;2022-11-12T15:55:35;25.98;;;18.42;;
31384;SDS011;18016;49.788;8.742;2022-11-12T15:58:01;22.90;;;17.20;;
31384;SDS011;18016;49.788;8.742;2022-11-12T16:00:31;22.05;;;17.73;;
31384;SDS011;18016;49.788;8.742;2022-11-12T16:03:02;26.73;;;17.63;;